sensor_id;sensor_type;location;lat;lon;timestamp;P1;durP1;ratioP1;P2;durP2;ratioP2
22441;SDS011;11388;54.456;9.752;2023-10-31T00:02:20;4.93;;;2.33;;
22441;SDS011;11388;54.456;9.752;2023-10-31T00:04:45;5.68;;;2.58;;
22441;SDS011;11388;54.456;9.752;2023-10-31T00:07:11;5.85;;;2.50;;
22441;SDS011;11388;54.456;9.752;2023-10-31T00:09:37;8.95;;;2.83;;
22441;SDS011;11388;54.456;9.752;2023-10-31T00:12:04;5.65;;;2.35;;
22441;SDS011;11388;54.456;9.752;2023-10-31T00:14:30;6.55;;;2.30;;
22441;SDS011;11388;54.456;9.752;2023-10-31T00:16:56;6.22;;;2.25;;
22441;SDS011;11388;54.456;9.752;2023-10-31T00:19:25;7.95;;;2.65;;
22441;SDS011;11388;54.456;9.752;2023-10-31T00:21:50;5.82;;;2.67;;
22441;SDS011;11388;54.456;9.752;2023-10-31T00:24:16;6.78;;;2.70;;
22441;SDS011;11388;54.456;9.752;2023-10-31T00:26:42;7.20;;;3.03;;
22441;SDS011;11388;54.456;9.752;2023-10-31T00:29:08;6.22;;;2.40;;
22441;SDS011;11388;54.456;9.752;2023-10-31T00:31:33;5.00;;;2.20;;
22441;SDS011;11388;54.456;9.752;2023-10-31T00:34:00;5.15;;;2.40;;
22441;SDS011;11388;54.456;9.752;2023-10-31T00:36:26;4.63;;;2.13;;
22441;SDS011;11388;54.456;9.752;2023-10-31T00:38:52;5.85;;;2.42;;
22441;SDS011;11388;54.456;9.752;2023-10-31T00:41:18;6.00;;;2.40;;
22441;SDS011;11388;54.456;9.752;2023-10-31T00:43:44;6.22;;;2.40;;
22441;SDS011;11388;54.456;9.752;2023-10-31T00:46:09;6.32;;;2.25;;
22441;SDS011;11388;54.456;9.752;2023-10-31T00:48:35;6.68;;;2.80;;
22441;SDS011;11388;54.456;9.752;2023-10-31T00:51:05;4.60;;;2.42;;
22441;SDS011;11388;54.456;9.752;2023-10-31T00:53:31;4.45;;;2.60;;
22441;SDS011;11388;54.456;9.752;2023-10-31T00:55:57;6.80;;;2.70;;
22441;SDS011;11388;54.456;9.752;2023-10-31T00:58:23;6.32;;;2.80;;
22441;SDS011;11388;54.456;9.752;2023-10-31T01:00:49;6.22;;;2.85;;
22441;SDS011;11388;54.456;9.752;2023-10-31T01:03:14;7.22;;;2.80;;
22441;SDS011;11388;54.456;9.752;2023-10-31T01:05:40;7.45;;;3.10;;
22441;SDS011;11388;54.456;9.752;2023-10-31T01:08:06;6.53;;;2.72;;
22441;SDS011;11388;54.456;9.752;2023-10-31T01:10:31;7.15;;;2.90;;
22441;SDS011;11388;54.456;9.752;2023-10-31T01:12:57;5.20;;;2.47;;
22441;SDS011;11388;54.456;9.752;2023-10-31T01:15:23;6.93;;;3.00;;
22441;SDS011;11388;54.456;9.752;2023-10-31T01:17:49;5.43;;;2.70;;
22441;SDS011;11388;54.456;9.752;2023-10-31T01:20:14;7.60;;;2.97;;
22441;SDS011;11388;54.456;9.752;2023-10-31T01:22:40;10.10;;;3.85;;
22441;SDS011;11388;54.456;9.752;2023-10-31T01:25:06;9.38;;;3.25;;
22441;SDS011;11388;54.456;9.752;2023-10-31T01:27:32;7.20;;;3.47;;
22441;SDS011;11388;54.456;9.752;2023-10-31T01:29:58;7.30;;;3.70;;
22441;SDS011;11388;54.456;9.752;2023-10-31T01:32:23;7.28;;;3.40;;
22441;SDS011;11388;54.456;9.752;2023-10-31T01:34:49;5.82;;;3.10;;
22441;SDS011;11388;54.456;9.752;2023-10-31T01:37:15;8.00;;;3.90;;
22441;SDS011;11388;54.456;9.752;2023-10-31T01:39:42;6.75;;;3.50;;
22441;SDS011;11388;54.456;9.752;2023-10-31T01:42:08;7.32;;;3.40;;
22441;SDS011;11388;54.456;9.752;2023-10-31T01:44:33;9.00;;;3.88;;
22441;SDS011;11388;54.456;9.752;2023-10-31T01:46:59;6.72;;;3.63;;
22441;SDS011;11388;54.456;9.752;2023-10-31T01:49:25;6.82;;;3.42;;
22441;SDS011;11388;54.456;9.752;2023-10-31T01:51:54;7.40;;;3.58;;
22441;SDS011;11388;54.456;9.752;2023-10-31T01:54:19;5.95;;;3.50;;
22441;SDS011;11388;54.456;9.752;2023-10-31T01:56:46;7.72;;;4.00;;
22441;SDS011;11388;54.456;9.752;2023-10-31T01:59:13;5.07;;;3.58;;
22441;SDS011;11388;54.456;9.752;2023-10-31T02:01:39;5.50;;;3.42;;
22441;SDS011;11388;54.456;9.752;2023-10-31T02:04:07;6.05;;;3.58;;
22441;SDS011;11388;54.456;9.752;2023-10-31T02:06:33;7.93;;;3.53;;
22441;SDS011;11388;54.456;9.752;2023-10-31T02:08:59;6.72;;;3.33;;
22441;SDS011;11388;54.456;9.752;2023-10-31T02:11:25;6.50;;;3.90;;
22441;SDS011;11388;54.456;9.752;2023-10-31T02:13:50;6.50;;;3.75;;
22441;SDS011;11388;54.456;9.752;2023-10-31T02:16:16;5.65;;;3.85;;
22441;SDS011;11388;54.456;9.752;2023-10-31T02:18:42;7.60;;;4.00;;
22441;SDS011;11388;54.456;9.752;2023-10-31T02:21:08;6.55;;;3.80;;
22441;SDS011;11388;54.456;9.752;2023-10-31T02:23:34;6.28;;;3.60;;
22441;SDS011;11388;54.456;9.752;2023-10-31T02:25:59;6.03;;;3.58;;
22441;SDS011;11388;54.456;9.752;2023-10-31T02:28:25;8.95;;;3.60;;
22441;SDS011;11388;54.456;9.752;2023-10-31T02:30:53;4.95;;;3.50;;
22441;SDS011;11388;54.456;9.752;2023-10-31T02:33:20;5.68;;;3.10;;
22441;SDS011;11388;54.456;9.752;2023-10-31T02:35:46;5.38;;;3.28;;
22441;SDS011;11388;54.456;9.752;2023-10-31T02:38:12;6.35;;;3.38;;
22441;SDS011;11388;54.456;9.752;2023-10-31T02:40:37;4.72;;;3.28;;
22441;SDS011;11388;54.456;9.752;2023-10-31T02:43:03;6.10;;;3.47;;
22441;SDS011;11388;54.456;9.752;2023-10-31T02:45:29;5.78;;;3.80;;
22441;SDS011;11388;54.456;9.752;2023-10-31T02:47:55;7.45;;;4.05;;
22441;SDS011;11388;54.456;9.752;2023-10-31T02:50:23;7.20;;;3.53;;
22441;SDS011;11388;54.456;9.752;2023-10-31T02:52:49;5.43;;;3.50;;
22441;SDS011;11388;54.456;9.752;2023-10-31T02:55:18;5.50;;;3.30;;
22441;SDS011;11388;54.456;9.752;2023-10-31T02:57:43;6.13;;;3.40;;
22441;SDS011;11388;54.456;9.752;2023-10-31T03:00:09;5.50;;;2.80;;
22441;SDS011;11388;54.456;9.752;2023-10-31T03:02:35;4.85;;;2.75;;
22441;SDS011;11388;54.456;9.752;2023-10-31T03:05:01;4.53;;;2.50;;
22441;SDS011;11388;54.456;9.752;2023-10-31T03:07:27;5.35;;;2.72;;
22441;SDS011;11388;54.456;9.752;2023-10-31T03:09:53;3.47;;;2.30;;
22441;SDS011;11388;54.456;9.752;2023-10-31T03:12:19;3.53;;;2.08;;
22441;SDS011;11388;54.456;9.752;2023-10-31T03:14:45;4.32;;;2.17;;
22441;SDS011;11388;54.456;9.752;2023-10-31T03:17:10;4.50;;;2.10;;
22441;SDS011;11388;54.456;9.752;2023-10-31T03:19:36;3.53;;;1.83;;
22441;SDS011;11388;54.456;9.752;2023-10-31T03:22:02;4.18;;;1.98;;
22441;SDS011;11388;54.456;9.752;2023-10-31T03:24:28;2.88;;;2.10;;
22441;SDS011;11388;54.456;9.752;2023-10-31T03:26:56;3.13;;;1.90;;
22441;SDS011;11388;54.456;9.752;2023-10-31T03:29:22;3.35;;;1.70;;
22441;SDS011;11388;54.456;9.752;2023-10-31T03:31:48;2.78;;;1.52;;
22441;SDS011;11388;54.456;9.752;2023-10-31T03:34:13;3.85;;;1.50;;
22441;SDS011;11388;54.456;9.752;2023-10-31T03:36:39;4.18;;;1.17;;
22441;SDS011;11388;54.456;9.752;2023-10-31T03:39:05;2.63;;;1.20;;
22441;SDS011;11388;54.456;9.752;2023-10-31T03:41:31;3.75;;;1.23;;
22441;SDS011;11388;54.456;9.752;2023-10-31T03:43:56;3.85;;;1.20;;
22441;SDS011;11388;54.456;9.752;2023-10-31T03:46:22;2.58;;;1.00;;
22441;SDS011;11388;54.456;9.752;2023-10-31T03:48:48;2.70;;;1.05;;
22441;SDS011;11388;54.456;9.752;2023-10-31T03:51:14;2.67;;;1.08;;
22441;SDS011;11388;54.456;9.752;2023-10-31T03:53:40;2.85;;;1.00;;
22441;SDS011;11388;54.456;9.752;2023-10-31T03:56:05;5.05;;;1.20;;
22441;SDS011;11388;54.456;9.752;2023-10-31T03:58:31;4.97;;;1.23;;
22441;SDS011;11388;54.456;9.752;2023-10-31T04:00:57;3.67;;;1.10;;
22441;SDS011;11388;54.456;9.752;2023-10-31T04:03:23;3.92;;;1.20;;
22441;SDS011;11388;54.456;9.752;2023-10-31T04:05:48;4.43;;;1.00;;
22441;SDS011;11388;54.456;9.752;2023-10-31T04:08:14;3.45;;;1.00;;
22441;SDS011;11388;54.456;9.752;2023-10-31T04:10:40;3.55;;;1.00;;
22441;SDS011;11388;54.456;9.752;2023-10-31T04:13:05;3.17;;;1.08;;
22441;SDS011;11388;54.456;9.752;2023-10-31T04:15:31;3.65;;;0.90;;
22441;SDS011;11388;54.456;9.752;2023-10-31T04:17:59;4.10;;;1.10;;
22441;SDS011;11388;54.456;9.752;2023-10-31T04:20:24;4.22;;;1.00;;
22441;SDS011;11388;54.456;9.752;2023-10-31T04:22:50;2.60;;;0.68;;
22441;SDS011;11388;54.456;9.752;2023-10-31T04:25:16;5.88;;;0.95;;
22441;SDS011;11388;54.456;9.752;2023-10-31T04:27:42;3.63;;;0.80;;
22441;SDS011;11388;54.456;9.752;2023-10-31T04:30:08;4.35;;;1.08;;
22441;SDS011;11388;54.456;9.752;2023-10-31T04:32:34;3.03;;;0.80;;
22441;SDS011;11388;54.456;9.752;2023-10-31T04:35:00;3.70;;;0.80;;
22441;SDS011;11388;54.456;9.752;2023-10-31T04:37:26;4.10;;;0.82;;
22441;SDS011;11388;54.456;9.752;2023-10-31T04:39:51;3.58;;;1.05;;
22441;SDS011;11388;54.456;9.752;2023-10-31T04:42:17;3.17;;;0.77;;
22441;SDS011;11388;54.456;9.752;2023-10-31T04:44:45;4.00;;;1.10;;
22441;SDS011;11388;54.456;9.752;2023-10-31T04:47:11;3.63;;;0.93;;
22441;SDS011;11388;54.456;9.752;2023-10-31T04:49:37;3.17;;;0.70;;
22441;SDS011;11388;54.456;9.752;2023-10-31T04:52:03;2.22;;;0.70;;
22441;SDS011;11388;54.456;9.752;2023-10-31T04:54:29;3.42;;;0.80;;
22441;SDS011;11388;54.456;9.752;2023-10-31T04:56:54;3.05;;;0.82;;
22441;SDS011;11388;54.456;9.752;2023-10-31T04:59:20;3.53;;;0.80;;
22441;SDS011;11388;54.456;9.752;2023-10-31T05:01:49;4.90;;;0.70;;
22441;SDS011;11388;54.456;9.752;2023-10-31T05:04:19;1.77;;;0.68;;
22441;SDS011;11388;54.456;9.752;2023-10-31T05:06:44;2.22;;;0.70;;
22441;SDS011;11388;54.456;9.752;2023-10-31T05:09:10;3.83;;;0.60;;
22441;SDS011;11388;54.456;9.752;2023-10-31T05:11:36;2.30;;;0.60;;
22441;SDS011;11388;54.456;9.752;2023-10-31T05:14:02;3.33;;;0.73;;
22441;SDS011;11388;54.456;9.752;2023-10-31T05:16:27;1.52;;;0.43;;
22441;SDS011;11388;54.456;9.752;2023-10-31T05:18:53;2.03;;;0.57;;
22441;SDS011;11388;54.456;9.752;2023-10-31T05:21:19;2.67;;;0.80;;
22441;SDS011;11388;54.456;9.752;2023-10-31T05:23:46;1.80;;;0.47;;
22441;SDS011;11388;54.456;9.752;2023-10-31T05:26:12;2.83;;;0.70;;
22441;SDS011;11388;54.456;9.752;2023-10-31T05:28:37;3.25;;;0.70;;
22441;SDS011;11388;54.456;9.752;2023-10-31T05:31:03;2.22;;;0.65;;
22441;SDS011;11388;54.456;9.752;2023-10-31T05:33:29;3.10;;;0.60;;
22441;SDS011;11388;54.456;9.752;2023-10-31T05:35:55;3.47;;;0.70;;
22441;SDS011;11388;54.456;9.752;2023-10-31T05:38:20;2.38;;;0.90;;
22441;SDS011;11388;54.456;9.752;2023-10-31T05:40:46;3.33;;;1.02;;
22441;SDS011;11388;54.456;9.752;2023-10-31T05:43:13;3.13;;;0.70;;
22441;SDS011;11388;54.456;9.752;2023-10-31T05:45:42;3.17;;;0.70;;
22441;SDS011;11388;54.456;9.752;2023-10-31T05:48:10;2.33;;;0.60;;
22441;SDS011;11388;54.456;9.752;2023-10-31T05:50:39;3.72;;;0.90;;
22441;SDS011;11388;54.456;9.752;2023-10-31T05:53:04;2.47;;;0.70;;
22441;SDS011;11388;54.456;9.752;2023-10-31T05:55:30;2.92;;;0.90;;
22441;SDS011;11388;54.456;9.752;2023-10-31T05:57:56;4.15;;;1.00;;
22441;SDS011;11388;54.456;9.752;2023-10-31T06:00:24;5.35;;;0.90;;
22441;SDS011;11388;54.456;9.752;2023-10-31T06:05:37;3.83;;;0.98;;
22441;SDS011;11388;54.456;9.752;2023-10-31T06:08:03;2.80;;;1.10;;
22441;SDS011;11388;54.456;9.752;2023-10-31T06:10:33;3.60;;;1.27;;
22441;SDS011;11388;54.456;9.752;2023-10-31T06:12:59;2.95;;;1.20;;
22441;SDS011;11388;54.456;9.752;2023-10-31T06:15:25;3.08;;;0.85;;
22441;SDS011;11388;54.456;9.752;2023-10-31T06:17:51;2.47;;;0.80;;
22441;SDS011;11388;54.456;9.752;2023-10-31T06:20:16;4.00;;;1.00;;
22441;SDS011;11388;54.456;9.752;2023-10-31T06:22:42;2.60;;;1.08;;
22441;SDS011;11388;54.456;9.752;2023-10-31T06:25:08;3.50;;;1.10;;
22441;SDS011;11388;54.456;9.752;2023-10-31T06:27:34;1.95;;;1.00;;
22441;SDS011;11388;54.456;9.752;2023-10-31T06:29:59;2.97;;;0.90;;
22441;SDS011;11388;54.456;9.752;2023-10-31T06:32:25;3.00;;;0.90;;
22441;SDS011;11388;54.456;9.752;2023-10-31T06:34:51;3.45;;;0.93;;
22441;SDS011;11388;54.456;9.752;2023-10-31T06:37:20;2.50;;;0.80;;
22441;SDS011;11388;54.456;9.752;2023-10-31T06:39:46;4.78;;;1.20;;
22441;SDS011;11388;54.456;9.752;2023-10-31T06:42:11;1.98;;;0.75;;
22441;SDS011;11388;54.456;9.752;2023-10-31T06:44:37;3.15;;;0.80;;
22441;SDS011;11388;54.456;9.752;2023-10-31T06:47:03;2.40;;;0.90;;
22441;SDS011;11388;54.456;9.752;2023-10-31T06:49:29;2.65;;;0.80;;
22441;SDS011;11388;54.456;9.752;2023-10-31T06:51:57;2.17;;;0.77;;
22441;SDS011;11388;54.456;9.752;2023-10-31T06:54:23;2.45;;;0.80;;
22441;SDS011;11388;54.456;9.752;2023-10-31T06:56:48;3.15;;;0.70;;
22441;SDS011;11388;54.456;9.752;2023-10-31T06:59:14;1.45;;;0.60;;
22441;SDS011;11388;54.456;9.752;2023-10-31T07:01:46;2.38;;;0.80;;
22441;SDS011;11388;54.456;9.752;2023-10-31T07:04:22;2.17;;;0.60;;
22441;SDS011;11388;54.456;9.752;2023-10-31T07:06:47;1.65;;;0.63;;
22441;SDS011;11388;54.456;9.752;2023-10-31T07:09:21;1.38;;;0.60;;
22441;SDS011;11388;54.456;9.752;2023-10-31T07:11:48;2.60;;;1.08;;
22441;SDS011;11388;54.456;9.752;2023-10-31T07:14:14;4.35;;;0.98;;
22441;SDS011;11388;54.456;9.752;2023-10-31T07:16:39;3.67;;;0.77;;
22441;SDS011;11388;54.456;9.752;2023-10-31T07:19:08;2.17;;;0.60;;
22441;SDS011;11388;54.456;9.752;2023-10-31T07:21:34;1.80;;;0.50;;
22441;SDS011;11388;54.456;9.752;2023-10-31T07:24:00;2.63;;;0.80;;
22441;SDS011;11388;54.456;9.752;2023-10-31T07:26:26;2.08;;;0.70;;
22441;SDS011;11388;54.456;9.752;2023-10-31T07:28:52;3.58;;;0.90;;
22441;SDS011;11388;54.456;9.752;2023-10-31T07:31:18;2.35;;;0.77;;
22441;SDS011;11388;54.456;9.752;2023-10-31T07:33:45;2.65;;;0.60;;
22441;SDS011;11388;54.456;9.752;2023-10-31T07:36:11;1.38;;;0.77;;
22441;SDS011;11388;54.456;9.752;2023-10-31T07:38:37;2.15;;;0.63;;
22441;SDS011;11388;54.456;9.752;2023-10-31T07:41:02;2.53;;;0.88;;
22441;SDS011;11388;54.456;9.752;2023-10-31T07:43:28;3.55;;;0.60;;
22441;SDS011;11388;54.456;9.752;2023-10-31T07:45:54;2.25;;;0.70;;
22441;SDS011;11388;54.456;9.752;2023-10-31T07:48:23;2.33;;;0.60;;
22441;SDS011;11388;54.456;9.752;2023-10-31T07:50:49;2.45;;;0.60;;
22441;SDS011;11388;54.456;9.752;2023-10-31T07:53:15;0.98;;;0.57;;
22441;SDS011;11388;54.456;9.752;2023-10-31T07:55:44;5.20;;;0.70;;
22441;SDS011;11388;54.456;9.752;2023-10-31T07:58:13;1.38;;;0.60;;
22441;SDS011;11388;54.456;9.752;2023-10-31T08:00:38;1.90;;;0.70;;
22441;SDS011;11388;54.456;9.752;2023-10-31T08:03:04;2.50;;;0.85;;
22441;SDS011;11388;54.456;9.752;2023-10-31T08:05:30;2.00;;;0.50;;
22441;SDS011;11388;54.456;9.752;2023-10-31T08:07:56;1.30;;;0.30;;
22441;SDS011;11388;54.456;9.752;2023-10-31T08:10:22;0.52;;;0.30;;
22441;SDS011;11388;54.456;9.752;2023-10-31T08:12:50;0.43;;;0.13;;
22441;SDS011;11388;54.456;9.752;2023-10-31T08:15:16;0.55;;;0.15;;
22441;SDS011;11388;54.456;9.752;2023-10-31T08:28:57;1.45;;;0.10;;
22441;SDS011;11388;54.456;9.752;2023-10-31T08:31:55;0.45;;;0.10;;
22441;SDS011;11388;54.456;9.752;2023-10-31T10:02:16;1.17;;;0.17;;
22441;SDS011;11388;54.456;9.752;2023-10-31T10:04:45;0.80;;;0.10;;
22441;SDS011;11388;54.456;9.752;2023-10-31T10:07:19;0.40;;;0.10;;
22441;SDS011;11388;54.456;9.752;2023-10-31T10:10:03;0.55;;;0.10;;
22441;SDS011;11388;54.456;9.752;2023-10-31T10:12:29;1.55;;;0.10;;
22441;SDS011;11388;54.456;9.752;2023-10-31T10:14:55;0.30;;;0.10;;
22441;SDS011;11388;54.456;9.752;2023-10-31T10:17:23;1.00;;;0.28;;
22441;SDS011;11388;54.456;9.752;2023-10-31T10:22:39;2.55;;;0.20;;
22441;SDS011;11388;54.456;9.752;2023-10-31T10:25:08;1.42;;;0.20;;
22441;SDS011;11388;54.456;9.752;2023-10-31T10:27:37;0.75;;;0.30;;
22441;SDS011;11388;54.456;9.752;2023-10-31T10:30:07;0.40;;;0.10;;
22441;SDS011;11388;54.456;9.752;2023-10-31T10:32:33;0.63;;;0.20;;
22441;SDS011;11388;54.456;9.752;2023-10-31T10:34:59;0.22;;;0.20;;
22441;SDS011;11388;54.456;9.752;2023-10-31T10:37:26;1.38;;;0.20;;
22441;SDS011;11388;54.456;9.752;2023-10-31T10:40:00;1.10;;;0.20;;
22441;SDS011;11388;54.456;9.752;2023-10-31T10:45:01;2.05;;;0.20;;
22441;SDS011;11388;54.456;9.752;2023-10-31T10:47:31;1.35;;;0.30;;
22441;SDS011;11388;54.456;9.752;2023-10-31T10:50:00;1.63;;;0.22;;
22441;SDS011;11388;54.456;9.752;2023-10-31T10:55:08;1.25;;;0.20;;
22441;SDS011;11388;54.456;9.752;2023-10-31T10:57:38;0.35;;;0.20;;
22441;SDS011;11388;54.456;9.752;2023-10-31T11:00:23;0.65;;;0.15;;
22441;SDS011;11388;54.456;9.752;2023-10-31T11:03:02;1.27;;;0.38;;
22441;SDS011;11388;54.456;9.752;2023-10-31T11:08:12;0.80;;;0.20;;
22441;SDS011;11388;54.456;9.752;2023-10-31T11:10:39;0.60;;;0.17;;
22441;SDS011;11388;54.456;9.752;2023-10-31T11:13:05;0.30;;;0.10;;
22441;SDS011;11388;54.456;9.752;2023-10-31T11:15:31;0.47;;;0.20;;
22441;SDS011;11388;54.456;9.752;2023-10-31T11:17:57;0.90;;;0.10;;
22441;SDS011;11388;54.456;9.752;2023-10-31T11:20:24;0.30;;;0.10;;
22441;SDS011;11388;54.456;9.752;2023-10-31T11:22:54;2.70;;;0.30;;
22441;SDS011;11388;54.456;9.752;2023-10-31T11:25:24;0.43;;;0.17;;
22441;SDS011;11388;54.456;9.752;2023-10-31T11:27:50;1.23;;;0.22;;
22441;SDS011;11388;54.456;9.752;2023-10-31T11:30:29;0.82;;;0.20;;
22441;SDS011;11388;54.456;9.752;2023-10-31T11:32:57;0.50;;;0.10;;
22441;SDS011;11388;54.456;9.752;2023-10-31T11:35:29;1.98;;;0.20;;
22441;SDS011;11388;54.456;9.752;2023-10-31T11:41:01;1.10;;;0.22;;
22441;SDS011;11388;54.456;9.752;2023-10-31T11:43:51;2.05;;;0.20;;
22441;SDS011;11388;54.456;9.752;2023-10-31T11:46:18;1.45;;;0.20;;
22441;SDS011;11388;54.456;9.752;2023-10-31T11:48:57;0.47;;;0.15;;
22441;SDS011;11388;54.456;9.752;2023-10-31T11:51:32;0.50;;;0.30;;
22441;SDS011;11388;54.456;9.752;2023-10-31T11:54:05;0.22;;;0.13;;
22441;SDS011;11388;54.456;9.752;2023-10-31T11:56:34;1.23;;;0.10;;
22441;SDS011;11388;54.456;9.752;2023-10-31T11:59:03;0.60;;;0.20;;
22441;SDS011;11388;54.456;9.752;2023-10-31T12:01:31;1.75;;;0.20;;
22441;SDS011;11388;54.456;9.752;2023-10-31T12:03:57;0.38;;;0.10;;
22441;SDS011;11388;54.456;9.752;2023-10-31T12:06:23;0.35;;;0.10;;
22441;SDS011;11388;54.456;9.752;2023-10-31T12:08:49;0.40;;;0.20;;
22441;SDS011;11388;54.456;9.752;2023-10-31T12:11:16;1.08;;;0.20;;
22441;SDS011;11388;54.456;9.752;2023-10-31T12:13:53;0.57;;;0.22;;
22441;SDS011;11388;54.456;9.752;2023-10-31T12:16:22;0.25;;;0.20;;
22441;SDS011;11388;54.456;9.752;2023-10-31T12:19:00;0.70;;;0.30;;
22441;SDS011;11388;54.456;9.752;2023-10-31T12:21:42;0.93;;;0.40;;
22441;SDS011;11388;54.456;9.752;2023-10-31T12:24:12;0.73;;;0.43;;
22441;SDS011;11388;54.456;9.752;2023-10-31T12:27:03;1.42;;;0.50;;
22441;SDS011;11388;54.456;9.752;2023-10-31T12:29:29;0.98;;;0.50;;
22441;SDS011;11388;54.456;9.752;2023-10-31T12:31:55;1.42;;;0.90;;
22441;SDS011;11388;54.456;9.752;2023-10-31T12:34:24;1.38;;;0.80;;
22441;SDS011;11388;54.456;9.752;2023-10-31T12:36:50;1.27;;;0.80;;
22441;SDS011;11388;54.456;9.752;2023-10-31T12:39:21;3.53;;;2.15;;
22441;SDS011;11388;54.456;9.752;2023-10-31T12:44:58;0.98;;;0.70;;
22441;SDS011;11388;54.456;9.752;2023-10-31T13:11:08;5.15;;;1.38;;
22441;SDS011;11388;54.456;9.752;2023-10-31T13:14:08;1.77;;;0.95;;
22441;SDS011;11388;54.456;9.752;2023-10-31T14:51:24;1.15;;;0.52;;
22441;SDS011;11388;54.456;9.752;2023-10-31T14:54:15;2.50;;;0.80;;
